ESDF/RNB METAR and TAF weather

Enter ICAO airport designator
Station Type Date Time Source
ESDF METAR 2019/10/20 18:50 UTC NOAA

ESDF 201850Z 00000KT CAVOK 11/11 Q1014


Station Type Date Time Source
ESDF Decoded METAR 2019/10/20 18:50 UTC NOAA

Ronneby, Sweden (ESDF) 56-16N 015-17E 74M
Oct 20, 2019 - 02:50 PM EDT / 2019.10.20 1850 UTC
Wind: Calm:0
Visibility: greater than 7 mile(s):0
Temperature: 51 F (11 C)
Dew Point: 51 F (11 C)
Relative Humidity: 100%
Pressure (altimeter): 29.94 in. Hg (1014 hPa)
ob: ESDF 201850Z 00000KT CAVOK 11/11 Q1014
cycle: 19

Station Type Date Time Source
ESDF TAF 2018/05/29 12:27 UTC NOAA

TAF TAF ESDF 291425Z 2912/2924 07008KT CAVOK
RMK MIL

Example: see airport list